Time;durP1;ratioP1;P1;durP2;ratioP2;P2;SDS_P1;SDS_P2;PMS_P1;PMS_P2;Temp;Humidity;BMP_temperature;BMP_pressure;BME280_temperature;BME280_humidity;BME280_pressure;Samples;Min_cycle;Max_cycle;Signal;HPM_P1;HPM_P2
2022/01/21 00:01:37;;;;;;;32.47;20.38;;;;;;;0.92;65.22;93209.44;5070135;28;20051;-40
2022/01/21 00:04:02;;;;;;;32.28;20.92;;;;;;;1.05;65.29;93215.13;5069757;28;20058;-40
2022/01/21 00:06:28;;;;;;;31.75;17.25;;;;;;;1.19;63.96;93205.25;5069677;28;20064;-40
2022/01/21 00:08:54;;;;;;;26.40;16.33;;;;;;;1.29;63.54;93209.97;5070001;28;20051;-40
2022/01/21 00:11:22;;;;;;;22.90;15.13;;;;;;;0.82;65.58;93205.47;5069993;28;20035;-40
2022/01/21 00:13:48;;;;;;;24.73;15.40;;;;;;;0.61;65.76;93210.38;5069904;28;20029;-39
2022/01/21 00:16:18;;;;;;;21.65;14.43;;;;;;;0.62;66.10;93225.44;5069548;28;20539;-39
2022/01/21 00:18:58;;;;;;;14.93;10.65;;;;;;;0.47;66.03;93232.31;5069706;28;20040;-42
2022/01/21 00:32:21;;;;;;;12.85;8.20;;;;;;;0.59;66.95;93275.31;5070369;28;20658;-41
2022/01/21 00:34:47;;;;;;;13.07;7.07;;;;;;;0.70;65.61;93280.03;5053176;28;20048;-41
2022/01/21 00:37:12;;;;;;;10.93;6.35;;;;;;;0.82;64.99;93294.41;5053460;28;20594;-41
2022/01/21 00:39:38;;;;;;;14.90;7.85;;;;;;;0.98;65.66;93296.41;5054035;28;20464;-41
2022/01/21 00:42:35;;;;;;;22.70;13.18;;;;;;;0.90;66.11;93285.28;5073364;28;20047;-40
2022/01/21 00:45:00;;;;;;;18.60;9.80;;;;;;;0.75;67.34;93284.75;5072556;28;20726;-41
2022/01/21 00:47:26;;;;;;;18.50;10.43;;;;;;;1.04;67.93;93287.03;5073254;28;20047;-41
2022/01/21 00:49:52;;;;;;;23.23;10.60;;;;;;;1.18;66.77;93277.94;5072934;28;20031;-40
2022/01/21 00:52:18;;;;;;;27.73;11.25;;;;;;;1.25;67.45;93279.41;5072806;28;20028;-41
2022/01/21 00:54:43;;;;;;;20.60;11.13;;;;;;;1.33;68.00;93275.72;5072852;28;20024;-40
2022/01/21 00:57:09;;;;;;;22.05;10.18;;;;;;;1.40;68.68;93275.25;5072786;28;20036;-41
2022/01/21 00:59:35;;;;;;;19.63;10.35;;;;;;;1.56;69.64;93275.75;5073141;28;20024;-41
2022/01/21 01:02:01;;;;;;;17.90;9.95;;;;;;;1.70;69.75;93274.72;5072564;28;20047;-40
2022/01/21 01:04:27;;;;;;;10.60;7.22;;;;;;;1.75;69.49;93277.47;5072738;28;20060;-41
2022/01/21 01:06:52;;;;;;;18.75;7.50;;;;;;;1.71;69.85;93276.22;5072934;28;20028;-41
2022/01/21 01:09:18;;;;;;;13.77;7.68;;;;;;;1.75;70.89;93263.84;5072519;28;20086;-41
2022/01/21 01:28:28;;;;;;;22.48;12.50;;;;;;;1.83;72.69;93273.00;5030261;28;20095;-39
2022/01/21 01:30:54;;;;;;;16.60;9.32;;;;;;;1.95;71.92;93276.47;5047917;28;20041;-38
2022/01/21 01:33:24;;;;;;;18.25;9.45;;;;;;;2.00;72.85;93272.97;5062899;28;20059;-39
2022/01/21 01:35:50;;;;;;;12.10;7.53;;;;;;;1.99;73.62;93280.38;5069490;28;20040;-37
2022/01/21 01:40:49;;;;;;;10.38;7.72;;;;;;;1.88;76.79;93268.78;5057490;28;20497;-38
2022/01/21 01:51:12;;;;;;;10.60;7.32;;;;;;;1.68;79.62;93272.50;5069983;28;20047;-40
2022/01/21 01:54:00;;;;;;;13.23;7.60;;;;;;;1.74;79.92;93262.34;5071125;28;20025;-41
2022/01/21 01:56:33;;;;;;;10.35;7.65;;;;;;;1.75;80.17;93254.94;5071172;28;20716;-39
2022/01/21 01:58:58;;;;;;;9.55;7.38;;;;;;;1.74;79.95;93243.31;5071334;28;20058;-39
2022/01/21 02:01:24;;;;;;;10.23;7.55;;;;;;;1.86;79.78;93244.78;5071184;28;20025;-40
2022/01/21 02:03:49;;;;;;;11.07;7.43;;;;;;;1.84;79.54;93232.91;5071510;28;20021;-40
2022/01/21 02:06:15;;;;;;;10.77;8.05;;;;;;;2.01;79.65;93258.13;5071201;28;20497;-41
2022/01/21 02:08:41;;;;;;;12.18;8.75;;;;;;;1.98;79.17;93242.78;5071553;28;20055;-40
2022/01/21 02:11:07;;;;;;;12.38;7.30;;;;;;;2.01;78.82;93228.94;5071421;28;20399;-40
2022/01/21 02:13:39;;;;;;;9.18;7.68;;;;;;;2.01;79.45;93226.19;5071315;28;20033;-39
2022/01/21 02:21:31;;;;;;;10.45;7.43;;;;;;;1.95;79.17;93211.13;5071541;28;19961;-40
2022/01/21 02:24:07;;;;;;;10.13;7.07;;;;;;;2.00;79.31;93221.22;5071422;28;20486;-39
2022/01/21 02:26:34;;;;;;;10.68;7.45;;;;;;;2.04;78.85;93224.44;5071385;28;20120;-40
2022/01/21 02:29:02;;;;;;;10.57;7.53;;;;;;;2.14;78.60;93231.84;5071280;28;20086;-40
2022/01/21 02:31:28;;;;;;;10.05;7.63;;;;;;;2.14;78.63;93237.28;5071303;28;20070;-40
2022/01/21 02:33:54;;;;;;;6.88;4.82;;;;;;;1.87;78.13;93212.84;5068885;28;20493;-40
2022/01/21 02:36:20;;;;;;;9.15;4.47;;;;;;;1.88;78.49;93236.13;5070779;28;20029;-41
2022/01/21 02:38:45;;;;;;;7.30;4.55;;;;;;;1.71;78.32;93229.97;5070903;28;20028;-40
2022/01/21 02:41:11;;;;;;;6.22;4.20;;;;;;;1.64;79.01;93230.47;5054132;28;20025;-41
2022/01/21 02:43:36;;;;;;;11.05;6.05;;;;;;;1.69;78.83;93225.00;5050856;28;20024;-41
2022/01/21 02:46:06;;;;;;;13.38;6.72;;;;;;;1.57;79.41;93211.91;5050228;28;20219;-41
2022/01/21 02:48:35;;;;;;;19.80;8.98;;;;;;;1.56;79.63;93222.03;5051010;28;20414;-40
2022/01/21 02:51:02;;;;;;;20.15;9.63;;;;;;;1.53;80.05;93228.50;5050969;28;20059;-40
2022/01/21 02:53:40;;;;;;;7.13;3.40;;;;;;;1.69;78.68;93232.44;5051005;28;20033;-41
2022/01/21 02:56:09;;;;;;;4.55;3.08;;;;;;;1.64;78.28;93225.03;5050717;28;20465;-41
2022/01/21 02:58:35;;;;;;;;;;;;;;;1.60;78.45;93233.44;5051173;28;20040;-41
2022/01/21 03:01:00;;;;;;;7.47;3.45;;;;;;;1.47;78.67;93233.91;5050765;28;19909;-40
2022/01/21 03:03:26;;;;;;;29.15;13.80;;;;;;;1.41;78.34;93244.06;5050477;28;20521;-40
2022/01/21 03:05:51;;;;;;;9.57;4.72;;;;;;;1.33;78.22;93245.81;5050767;28;20049;-40
2022/01/21 03:08:17;;;;;;;20.73;9.95;;;;;;;1.49;77.54;93250.50;5050626;28;20087;-40
2022/01/21 03:10:43;;;;;;;5.25;3.20;;;;;;;1.32;77.62;93252.47;5050333;28;20513;-39
2022/01/21 03:13:08;;;;;;;5.95;2.75;;;;;;;1.11;78.11;93250.47;5050560;28;20033;-39
2022/01/21 03:15:34;;;;;;;1.50;1.38;;;;;;;1.10;78.21;93251.72;5050238;28;20069;-40
2022/01/21 03:17:59;;;;;;;1.90;1.63;;;;;;;1.08;78.33;93244.06;5050557;28;20029;-39
2022/01/21 03:20:25;;;;;;;4.60;2.63;;;;;;;1.07;77.89;93242.56;5050156;28;20029;-39
2022/01/21 03:22:50;;;;;;;5.95;3.28;;;;;;;1.07;78.33;93241.81;5050188;28;20072;-40
2022/01/21 03:25:16;;;;;;;3.53;2.30;;;;;;;0.91;78.63;93234.41;5050450;28;20063;-40
2022/01/21 03:27:41;;;;;;;1.48;1.20;;;;;;;0.95;78.62;93246.50;5050113;28;20028;-40
2022/01/21 03:30:09;;;;;;;2.97;1.70;;;;;;;0.90;77.56;93249.97;5065021;28;20098;-40
2022/01/21 03:32:35;;;;;;;2.67;1.65;;;;;;;0.82;77.88;93259.06;5069855;28;20017;-40
2022/01/21 03:35:00;;;;;;;2.25;1.23;;;;;;;0.69;78.49;93249.41;5069843;28;20094;-40
2022/01/21 03:37:26;;;;;;;4.90;2.75;;;;;;;0.66;78.78;93238.78;5070407;28;20040;-39
2022/01/21 03:39:52;;;;;;;5.95;2.75;;;;;;;0.71;79.31;93248.94;5070037;28;20412;-39
2022/01/21 03:42:17;;;;;;;2.15;1.77;;;;;;;0.66;79.55;93247.69;5069926;28;20040;-40
2022/01/21 03:44:43;;;;;;;7.45;3.67;;;;;;;0.70;79.23;93255.59;5069986;28;20107;-42
2022/01/21 03:47:08;;;;;;;7.30;4.00;;;;;;;0.79;78.92;93252.66;5069990;28;20031;-41
2022/01/21 03:49:39;;;;;;;13.52;7.45;;;;;;;0.88;78.43;93243.53;5069972;28;20117;-41
2022/01/21 03:52:06;;;;;;;8.90;4.72;;;;;;;0.85;77.60;93239.81;5068655;28;20508;-41
2022/01/21 03:54:32;;;;;;;21.20;11.35;;;;;;;0.88;77.44;93244.28;5069835;28;20545;-40
2022/01/21 03:56:59;;;;;;;5.82;3.33;;;;;;;0.84;77.39;93243.03;5069696;28;20094;-40
2022/01/21 03:59:25;;;;;;;2.35;2.08;;;;;;;0.91;77.66;93243.28;5073852;28;20039;-41
2022/01/21 04:01:50;;;;;;;2.63;2.40;;;;;;;0.99;76.33;93241.56;5074136;28;20028;-41
2022/01/21 04:04:16;;;;;;;2.80;2.60;;;;;;;0.92;75.96;93242.06;5073696;28;20128;-41
2022/01/21 04:06:41;;;;;;;2.45;2.25;;;;;;;0.95;75.61;93246.50;5073690;28;20030;-40
2022/01/21 04:09:07;;;;;;;1.88;1.77;;;;;;;0.99;75.33;93238.84;5074030;28;20114;-41
2022/01/21 04:11:32;;;;;;;5.90;3.75;;;;;;;1.06;74.42;93243.06;5073681;28;20421;-41
2022/01/21 04:13:58;;;;;;;1.15;1.05;;;;;;;1.01;74.12;93244.53;5073929;28;20032;-41
2022/01/21 04:16:23;;;;;;;2.22;1.48;;;;;;;0.97;74.76;93244.03;5073416;28;20505;-41
2022/01/21 04:18:49;;;;;;;1.75;1.63;;;;;;;0.80;73.71;93237.09;5073810;28;20041;-42
2022/01/21 04:21:15;;;;;;;2.38;1.35;;;;;;;0.81;73.85;93238.56;5073234;28;20028;-42
2022/01/21 04:23:40;;;;;;;1.10;0.95;;;;;;;0.72;74.55;93234.84;5073476;28;20056;-42
2022/01/21 04:26:06;;;;;;;1.60;1.40;;;;;;;0.68;74.04;93239.78;5073362;28;20086;-40
2022/01/21 04:28:31;;;;;;;2.53;1.70;;;;;;;0.71;74.76;93257.06;5073394;28;20493;-41
2022/01/21 04:30:58;;;;;;;2.28;1.08;;;;;;;0.64;74.70;93258.28;5073655;28;20055;-40
2022/01/21 04:33:23;;;;;;;1.73;1.00;;;;;;;0.64;75.14;93261.00;5072974;28;20124;-41
2022/01/21 04:35:49;;;;;;;1.77;1.35;;;;;;;0.45;74.99;93254.53;5073073;28;20127;-41
2022/01/21 04:38:18;;;;;;;1.23;1.13;;;;;;;0.43;75.76;93265.16;5073072;28;20020;-39
2022/01/21 04:40:54;;;;;;;4.57;3.13;;;;;;;0.33;76.05;93265.81;5073086;28;20135;-40
2022/01/21 04:48:48;;;;;;;1.55;1.33;;;;;;;0.15;76.70;93279.81;5073403;28;20520;-40
2022/01/21 04:51:26;;;;;;;0.68;0.68;;;;;;;-0.09;76.13;93282.88;5072957;28;20033;-39
2022/01/21 04:53:51;;;;;;;0.88;0.82;;;;;;;-0.09;76.79;93288.31;5073049;28;20028;-39
2022/01/21 04:56:17;;;;;;;4.65;2.05;;;;;;;-0.15;76.27;93290.22;5072466;28;20021;-40
2022/01/21 04:58:43;;;;;;;12.38;5.28;;;;;;;-0.20;77.28;93283.56;5073160;28;20052;-39
2022/01/21 05:01:10;;;;;;;22.60;8.05;;;;;;;-0.16;77.27;93294.94;5072752;28;20036;-40
2022/01/21 05:03:38;;;;;;;32.92;13.10;;;;;;;-0.21;77.75;93298.34;5072728;28;20036;-39
2022/01/21 05:06:03;;;;;;;3.60;2.28;;;;;;;-0.32;78.26;93314.53;5072243;28;20021;-40
2022/01/21 05:08:38;;;;;;;4.18;2.50;;;;;;;-0.39;78.79;93317.69;5072168;28;20643;-39
2022/01/21 05:11:04;;;;;;;3.30;2.03;;;;;;;-0.49;79.21;93310.94;5072216;28;20024;-41
2022/01/21 05:13:37;;;;;;;2.15;1.58;;;;;;;-0.59;80.23;93317.03;5072753;28;20116;-41
2022/01/21 05:16:39;;;;;;;7.93;4.78;;;;;;;-0.55;80.61;93322.97;5072653;28;20025;-40
2022/01/21 05:19:01;;;;;;;2.92;2.00;;;;;;;-0.49;80.45;93335.34;5070254;28;20127;-40
2022/01/21 05:21:26;;;;;;;2.33;1.95;;;;;;;-0.46;80.19;93336.38;5072182;28;20466;-39
2022/01/21 05:23:52;;;;;;;6.70;3.97;;;;;;;-0.41;80.30;93343.81;5072345;28;20169;-40
2022/01/21 05:26:18;;;;;;;7.25;3.90;;;;;;;-0.54;79.52;93332.59;5071697;28;20040;-40
2022/01/21 05:28:43;;;;;;;2.47;1.75;;;;;;;-0.50;80.12;93347.44;5071422;28;20043;-40
2022/01/21 05:31:09;;;;;;;2.58;1.30;;;;;;;-0.70;80.99;93360.31;5070907;28;20501;-40
2022/01/21 05:33:34;;;;;;;1.65;0.90;;;;;;;-0.88;79.67;93348.56;5065061;28;20052;-41
2022/01/21 05:36:00;;;;;;;1.33;0.70;;;;;;;-0.88;78.41;93372.19;5071943;28;20079;-40
2022/01/21 05:38:25;;;;;;;1.55;0.88;;;;;;;-0.96;78.95;93363.75;5072325;28;20554;-40
2022/01/21 05:40:51;;;;;;;0.77;0.50;;;;;;;-1.00;78.55;93367.88;5072378;28;20021;-39
2022/01/21 05:43:17;;;;;;;21.73;9.77;;;;;;;-0.97;78.14;93375.03;5072307;28;20033;-39
2022/01/21 05:48:27;;;;;;;4.85;2.55;;;;;;;-1.20;77.87;93387.63;5072257;28;20054;-40
2022/01/21 05:50:52;;;;;;;7.70;4.65;;;;;;;-1.22;77.53;93381.94;5070923;28;20021;-39
2022/01/21 05:53:18;;;;;;;12.20;7.28;;;;;;;-1.47;77.47;93333.13;5070531;28;20497;-40
2022/01/21 05:55:43;;;;;;;0.85;0.60;;;;;;;-1.27;77.17;93373.72;5071066;28;20509;-39
2022/01/21 05:58:11;;;;;;;2.22;1.13;;;;;;;-1.36;76.64;93380.00;5052921;28;20021;-39
2022/01/21 06:00:37;;;;;;;3.75;2.88;;;;;;;-1.25;76.97;93377.44;5059145;28;20032;-40
2022/01/21 06:03:06;;;;;;;4.03;2.65;;;;;;;-1.29;76.27;93387.00;5069864;28;20032;-39
2022/01/21 06:05:33;;;;;;;0.60;0.60;;;;;;;-1.34;74.77;93391.13;5069434;28;20051;-39
2022/01/21 06:08:03;;;;;;;2.97;1.10;;;;;;;-1.25;74.12;93403.78;5070861;28;20041;-40
2022/01/21 06:10:29;;;;;;;0.40;0.40;;;;;;;-1.30;72.56;93410.63;5067956;28;20051;-38
2022/01/21 06:12:56;;;;;;;1.08;0.73;;;;;;;-1.36;72.82;93406.34;5050738;28;20029;-38
2022/01/21 06:15:22;;;;;;;1.85;0.85;;;;;;;-1.31;73.24;93411.84;5050199;28;20116;-39
2022/01/21 06:17:47;;;;;;;0.55;0.40;;;;;;;-1.39;73.12;93418.88;5065271;28;20107;-38
2022/01/21 06:20:13;;;;;;;2.42;1.25;;;;;;;-1.32;72.40;93420.44;5069692;28;20043;-38
2022/01/21 06:22:38;;;;;;;13.05;4.68;;;;;;;-1.33;73.00;93440.63;5069544;28;20136;-39
2022/01/21 06:25:04;;;;;;;1.65;1.02;;;;;;;-1.50;71.69;93434.22;5069810;28;20074;-37
2022/01/21 06:27:32;;;;;;;4.38;2.92;;;;;;;-1.48;72.86;93458.88;5077070;28;20020;-37
2022/01/21 06:29:57;;;;;;;4.72;2.63;;;;;;;-1.54;73.30;93464.94;5073192;28;20544;-38
2022/01/21 06:32:25;;;;;;;16.17;5.03;;;;;;;-1.54;73.36;93467.66;5062471;28;20044;-38
2022/01/21 06:34:50;;;;;;;3.55;1.73;;;;;;;-1.58;72.60;93472.50;5067444;28;20066;-37
2022/01/21 06:37:16;;;;;;;4.82;1.98;;;;;;;-1.58;73.20;93496.88;5073491;28;20020;-37
2022/01/21 06:39:42;;;;;;;4.18;1.70;;;;;;;-1.68;73.54;93497.47;5072410;28;20500;-37
2022/01/21 06:42:07;;;;;;;4.60;2.28;;;;;;;-1.72;74.21;93502.31;5087866;28;20080;-37
2022/01/21 06:44:33;;;;;;;0.98;0.80;;;;;;;-1.68;74.30;93502.88;5087455;28;20117;-37
2022/01/21 06:47:00;;;;;;;1.52;1.42;;;;;;;-1.71;74.32;93501.13;5078592;28;20027;-37
2022/01/21 06:49:25;;;;;;;4.95;2.22;;;;;;;-1.66;73.39;93498.50;5086985;28;20063;-37
2022/01/21 06:51:51;;;;;;;2.88;1.20;;;;;;;-1.69;73.33;93498.69;5088409;28;20063;-37
2022/01/21 06:54:16;;;;;;;8.73;3.90;;;;;;;-1.54;73.11;93505.56;5087879;28;20024;-37
2022/01/21 06:56:42;;;;;;;12.25;4.88;;;;;;;-1.50;72.71;93507.34;5087200;28;20513;-37
2022/01/21 06:59:07;;;;;;;10.88;4.30;;;;;;;-1.37;73.06;93496.94;5083401;28;20109;-39
2022/01/21 07:01:33;;;;;;;13.18;0.88;;;;;;;-1.43;69.57;93496.88;5079078;28;20055;-38
2022/01/21 07:03:58;;;;;;;5.05;1.60;;;;;;;-1.28;68.49;93488.69;5067761;28;20044;-38
2022/01/21 07:06:24;;;;;;;1.40;1.00;;;;;;;-1.28;68.36;93496.81;5067281;28;20028;-38
2022/01/21 07:08:49;;;;;;;0.85;0.60;;;;;;;-1.23;66.90;93502.31;5066992;28;20036;-37
2022/01/21 07:11:15;;;;;;;1.25;1.00;;;;;;;-1.19;65.23;93510.25;5066688;28;20457;-38
2022/01/21 07:13:40;;;;;;;4.43;1.95;;;;;;;-1.07;64.95;93501.06;5079350;28;20059;-38
2022/01/21 07:16:06;;;;;;;1.77;1.25;;;;;;;-1.16;63.42;93482.97;5066348;28;20170;-38
2022/01/21 07:18:32;;;;;;;6.88;2.60;;;;;;;-1.04;61.81;93519.81;5066551;28;20082;-38
2022/01/21 07:20:58;;;;;;;4.90;2.30;;;;;;;-1.05;61.27;93520.28;5065638;28;20143;-37
2022/01/21 07:23:23;;;;;;;8.48;4.30;;;;;;;-0.88;62.17;93521.25;5066677;28;20035;-36
2022/01/21 07:25:49;;;;;;;6.57;4.30;;;;;;;-0.79;61.95;93529.25;5066915;28;20017;-36
2022/01/21 07:28:14;;;;;;;5.13;3.00;;;;;;;-0.72;61.13;93528.84;5066451;28;20047;-37
2022/01/21 07:30:40;;;;;;;4.63;3.22;;;;;;;-0.76;59.47;93536.44;5067075;28;20028;-37
2022/01/21 07:33:05;;;;;;;6.13;4.07;;;;;;;-0.82;60.26;93541.03;5063423;28;20418;-36
2022/01/21 07:35:31;;;;;;;42.30;19.23;;;;;;;-0.77;60.55;93546.53;5066748;28;20101;-37
2022/01/21 07:37:59;;;;;;;7.03;4.45;;;;;;;-0.85;60.47;93528.44;5065913;28;20090;-37
2022/01/21 07:40:24;;;;;;;5.28;1.70;;;;;;;-0.78;61.35;93552.44;5067611;28;20036;-37
2022/01/21 07:42:50;;;;;;;2.25;1.55;;;;;;;-0.71;61.74;93551.28;5078612;28;20032;-37
2022/01/21 07:45:15;;;;;;;1.98;1.17;;;;;;;-0.81;62.94;93556.84;5086465;28;20028;-36
2022/01/21 07:47:41;;;;;;;2.40;1.35;;;;;;;-0.81;64.79;93567.69;5067952;28;20121;-37
2022/01/21 07:50:07;;;;;;;4.53;2.92;;;;;;;-0.91;65.14;93562.88;5064296;28;20060;-37
2022/01/21 07:52:33;;;;;;;3.85;2.78;;;;;;;-0.75;66.17;93570.47;5065763;28;20025;-37
2022/01/21 07:54:58;;;;;;;2.45;2.13;;;;;;;-0.65;65.38;93573.78;5066105;28;20075;-37
2022/01/21 07:57:24;;;;;;;5.50;2.72;;;;;;;-0.60;66.07;93571.16;5065903;28;20024;-36
2022/01/21 07:59:49;;;;;;;9.52;1.38;;;;;;;-0.60;65.99;93576.56;5066114;28;20351;-36
2022/01/21 08:02:15;;;;;;;2.38;1.60;;;;;;;-0.64;67.00;93583.41;5065307;28;20066;-36
2022/01/21 08:04:41;;;;;;;2.97;2.10;;;;;;;-0.48;67.42;93578.22;5054290;28;20028;-36
2022/01/21 08:07:09;;;;;;;3.90;1.98;;;;;;;-0.51;66.71;93587.28;5045251;28;20033;-36
2022/01/21 08:09:35;;;;;;;2.88;2.05;;;;;;;-0.60;67.14;93592.84;5045330;28;20429;-37
2022/01/21 08:12:00;;;;;;;3.22;2.38;;;;;;;-0.56;67.93;93593.38;5066261;28;20047;-37
2022/01/21 08:14:26;;;;;;;3.08;1.77;;;;;;;-0.46;68.19;93589.34;5066229;28;20531;-37
2022/01/21 08:16:53;;;;;;;3.13;2.05;;;;;;;-0.39;68.14;93588.19;5084706;28;20168;-37
2022/01/21 08:19:18;;;;;;;2.55;1.48;;;;;;;-0.62;68.63;93595.28;5086339;28;20410;-37
2022/01/21 08:21:44;;;;;;;2.20;2.00;;;;;;;-0.44;68.81;93603.16;5086114;28;20038;-37
2022/01/21 08:24:10;;;;;;;3.38;2.10;;;;;;;-0.24;67.84;93608.56;5086151;28;20070;-37
2022/01/21 08:26:36;;;;;;;5.13;2.30;;;;;;;-0.39;66.13;93583.47;5067052;28;20024;-37
2022/01/21 08:29:04;;;;;;;1.95;1.67;;;;;;;-0.08;64.90;93608.03;5070974;28;20032;-37
2022/01/21 08:31:29;;;;;;;2.85;1.35;;;;;;;0.14;64.93;93614.91;5064259;28;20502;-37
2022/01/21 08:33:55;;;;;;;4.82;1.98;;;;;;;0.22;64.63;93611.31;5048020;28;20029;-36
2022/01/21 08:36:22;;;;;;;2.35;1.60;;;;;;;0.47;65.16;93618.72;5044921;28;20029;-37
2022/01/21 08:38:48;;;;;;;1.70;1.60;;;;;;;0.58;64.17;93618.09;5045012;28;20541;-39
2022/01/21 08:41:14;;;;;;;0.70;0.60;;;;;;;0.60;64.24;93613.66;5045512;28;20068;-37
2022/01/21 08:43:40;;;;;;;4.13;1.33;;;;;;;0.52;63.67;93603.72;5045611;28;20036;-37
2022/01/21 08:46:06;;;;;;;2.25;0.95;;;;;;;0.46;62.27;93602.91;5047494;28;20033;-37
2022/01/21 08:48:31;;;;;;;2.17;1.73;;;;;;;0.43;63.42;93610.06;5047152;28;20529;-38
2022/01/21 08:50:58;;;;;;;1.40;1.30;;;;;;;0.57;62.96;93614.63;5049528;28;20036;-37
2022/01/21 08:53:36;;;;;;;2.67;1.50;;;;;;;0.61;61.13;93619.81;5049124;28;20028;-37
2022/01/21 08:56:03;;;;;;;5.68;1.98;;;;;;;0.65;62.04;93617.66;5052187;28;20064;-37
2022/01/21 08:58:29;;;;;;;5.93;2.20;;;;;;;0.73;61.34;93635.78;5074214;28;20101;-37
2022/01/21 09:00:55;;;;;;;2.22;1.50;;;;;;;0.63;60.84;93634.44;5080428;28;20439;-37
2022/01/21 09:03:20;;;;;;;3.55;1.77;;;;;;;0.56;60.18;93625.97;5089053;28;20424;-37
2022/01/21 09:05:49;;;;;;;4.25;1.77;;;;;;;0.42;61.66;93630.28;5080520;28;20062;-37
2022/01/21 09:08:23;;;;;;;0.75;0.75;;;;;;;0.45;61.47;93612.28;5061349;28;20024;-37
2022/01/21 09:10:52;;;;;;;2.92;1.60;;;;;;;0.50;60.65;93609.59;5060039;28;20033;-37
2022/01/21 09:13:19;;;;;;;8.45;4.68;;;;;;;0.47;60.78;93609.84;5061198;28;20036;-37
2022/01/21 09:15:45;;;;;;;13.23;7.38;;;;;;;0.52;60.94;93606.44;5074208;28;20037;-37
2022/01/21 09:18:11;;;;;;;4.85;2.70;;;;;;;0.56;61.01;93596.81;5071753;28;20105;-37
2022/01/21 09:20:37;;;;;;;12.98;6.47;;;;;;;0.69;61.15;93605.31;5088572;28;20024;-37
2022/01/21 09:23:04;;;;;;;10.95;5.35;;;;;;;0.86;60.43;93602.75;5058653;28;20114;-37
2022/01/21 09:25:30;;;;;;;3.67;2.38;;;;;;;0.92;60.01;93591.94;5057392;28;20025;-37
2022/01/21 09:27:56;;;;;;;5.40;4.18;;;;;;;0.97;59.20;93602.09;5053604;28;20485;-37
2022/01/21 09:30:21;;;;;;;7.95;3.67;;;;;;;1.06;59.38;93585.63;5053702;28;20093;-36
2022/01/21 09:32:47;;;;;;;20.67;11.82;;;;;;;0.95;59.46;93594.44;5056130;28;20489;-36
2022/01/21 09:35:12;;;;;;;13.45;7.85;;;;;;;1.12;59.00;93586.38;5050746;28;20056;-37
2022/01/21 09:37:38;;;;;;;5.53;4.18;;;;;;;1.32;59.26;93578.13;5073291;28;20043;-37
2022/01/21 09:40:05;;;;;;;13.02;4.43;;;;;;;1.34;58.25;93578.38;5088586;28;20070;-36
2022/01/21 09:42:35;;;;;;;7.60;3.35;;;;;;;1.51;57.63;93568.31;5084473;28;20078;-36
2022/01/21 09:45:07;;;;;;;5.82;2.95;;;;;;;1.60;56.33;93573.56;5067441;28;20636;-36
2022/01/21 09:47:33;;;;;;;6.45;3.92;;;;;;;1.77;55.71;93557.31;5066079;28;20565;-37
2022/01/21 09:49:58;;;;;;;2.75;1.92;;;;;;;1.97;55.86;93546.25;5064320;28;20307;-37
2022/01/21 09:52:24;;;;;;;3.70;2.13;;;;;;;2.07;55.53;93542.03;5067606;28;20031;-36
2022/01/21 09:54:53;;;;;;;2.92;2.15;;;;;;;2.15;54.60;93534.88;5066285;28;20441;-37
2022/01/21 09:57:22;;;;;;;3.47;2.17;;;;;;;2.29;54.63;93531.19;5067359;28;20037;-39
2022/01/21 09:59:48;;;;;;;2.35;1.55;;;;;;;2.32;52.63;93521.31;5056668;28;20178;-38
2022/01/21 10:02:16;;;;;;;3.97;2.50;;;;;;;2.45;53.63;93522.28;5067631;28;20024;-38
2022/01/21 10:04:42;;;;;;;22.83;12.13;;;;;;;2.27;53.18;93511.88;5065472;28;20107;-38
2022/01/21 10:07:14;;;;;;;5.78;4.40;;;;;;;2.18;51.89;93531.19;5065103;28;20114;-39
2022/01/21 10:09:39;;;;;;;4.90;3.13;;;;;;;2.02;54.02;93534.59;5067924;28;20028;-38
2022/01/21 10:12:05;;;;;;;3.00;2.03;;;;;;;2.08;55.36;93538.09;5067732;28;20444;-36
2022/01/21 10:14:31;;;;;;;3.60;2.40;;;;;;;1.97;56.94;93533.34;5068180;28;20035;-37
2022/01/21 10:16:58;;;;;;;4.72;3.42;;;;;;;2.21;57.11;93530.19;5067766;28;20032;-38
2022/01/21 10:19:35;;;;;;;8.10;6.00;;;;;;;2.30;58.26;93527.97;5068027;28;20774;-38
2022/01/21 10:22:03;;;;;;;8.77;4.90;;;;;;;2.46;56.88;93523.78;5067516;28;20024;-38
2022/01/21 10:24:30;;;;;;;5.53;3.58;;;;;;;2.48;56.29;93521.31;5066461;28;20032;-38
2022/01/21 10:26:57;;;;;;;7.93;4.57;;;;;;;2.27;58.54;93506.44;5063490;28;20414;-38
2022/01/21 10:29:24;;;;;;;7.82;3.63;;;;;;;2.70;57.56;93504.97;5064623;28;20035;-38
2022/01/21 10:31:55;;;;;;;4.63;3.42;;;;;;;2.93;57.68;93511.13;5066728;28;20627;-38
2022/01/21 10:34:28;;;;;;;6.57;3.83;;;;;;;3.49;55.73;93507.03;5064868;28;20047;-39
2022/01/21 10:36:57;;;;;;;4.82;3.80;;;;;;;4.06;53.79;93511.75;5067510;28;20059;-38
2022/01/21 10:39:31;;;;;;;10.48;5.38;;;;;;;4.32;53.22;93514.81;5070079;28;20056;-39
2022/01/21 10:41:57;;;;;;;9.45;5.57;;;;;;;4.44;53.47;93499.81;5067331;28;20107;-39
2022/01/21 10:44:30;;;;;;;8.77;4.70;;;;;;;4.68;53.44;93506.63;5066407;28;20510;-39
2022/01/21 10:47:11;;;;;;;8.77;5.80;;;;;;;4.83;53.31;93509.75;5067092;28;20039;-38
2022/01/21 10:49:42;;;;;;;7.20;4.55;;;;;;;4.74;53.09;93507.31;5065025;28;20033;-38
2022/01/21 10:52:09;;;;;;;5.53;3.92;;;;;;;4.55;52.77;93507.19;5068026;28;20115;-38
2022/01/21 10:54:41;;;;;;;8.55;4.45;;;;;;;4.42;53.38;93496.09;5068853;28;20099;-38
2022/01/21 10:57:20;;;;;;;4.93;4.03;;;;;;;3.76;53.89;93506.19;5066299;28;20120;-38
2022/01/21 10:59:56;;;;;;;8.63;4.40;;;;;;;3.52;54.56;93505.28;5067868;28;20462;-38
2022/01/21 11:02:35;;;;;;;10.75;4.05;;;;;;;3.46;55.78;93502.59;5066034;28;20062;-38
2022/01/21 11:05:08;;;;;;;6.32;3.88;;;;;;;3.53;55.07;93495.88;5069440;28;20025;-38
2022/01/21 11:08:07;;;;;;;7.20;5.55;;;;;;;3.32;55.73;93487.25;5068356;28;20032;-40
2022/01/21 11:10:33;;;;;;;5.57;2.65;;;;;;;3.15;56.73;93486.53;5065278;28;20036;-38
2022/01/21 11:13:00;;;;;;;4.30;2.83;;;;;;;3.10;55.52;93489.28;5069386;28;20078;-39
2022/01/21 11:15:37;;;;;;;3.35;2.38;;;;;;;3.12;55.12;93489.53;5069334;28;20036;-38
2022/01/21 11:18:03;;;;;;;2.95;2.58;;;;;;;2.82;55.21;93475.69;5069035;28;20494;-38
2022/01/21 11:20:36;;;;;;;3.88;2.55;;;;;;;2.81;55.26;93472.25;5069437;28;20044;-38
2022/01/21 11:23:02;;;;;;;4.88;3.30;;;;;;;2.59;56.74;93447.72;5069372;28;20028;-38
2022/01/21 11:25:50;;;;;;;2.80;2.47;;;;;;;3.15;56.21;93463.97;5069500;28;20391;-38
2022/01/21 11:28:17;;;;;;;4.30;2.50;;;;;;;3.28;56.40;93462.19;5066377;28;20139;-38
2022/01/21 11:30:43;;;;;;;3.30;2.35;;;;;;;3.40;54.80;93463.63;5069467;28;20024;-38
2022/01/21 11:33:09;;;;;;;8.63;4.18;;;;;;;3.55;53.33;93461.34;5068883;28;20033;-38
2022/01/21 11:35:35;;;;;;;3.60;2.38;;;;;;;3.84;51.10;93459.97;5069008;28;20048;-37
2022/01/21 11:38:06;;;;;;;3.08;1.88;;;;;;;3.70;52.51;93467.22;5068757;28;20521;-37
2022/01/21 11:40:33;;;;;;;3.42;2.30;;;;;;;3.74;52.60;93453.31;5069063;28;20027;-38
2022/01/21 11:42:59;;;;;;;3.08;2.33;;;;;;;4.08;51.40;93462.81;5068817;28;20024;-37
2022/01/21 11:48:49;;;;;;;5.38;3.20;;;;;;;4.52;50.53;93456.28;5063341;28;20024;-38
2022/01/21 11:50:49;;;;;;;3.15;2.25;;;;;;;4.37;49.96;93464.09;5054740;28;20068;-37
2022/01/21 11:53:15;;;;;;;3.58;2.85;;;;;;;4.79;50.61;93466.25;5050381;28;20029;-38
2022/01/21 11:55:46;;;;;;;4.85;3.28;;;;;;;5.12;49.30;93454.25;5059072;28;20408;-37
2022/01/21 11:58:21;;;;;;;8.07;2.80;;;;;;;4.95;47.94;93459.88;5063561;28;20509;-37
2022/01/21 12:00:48;;;;;;;5.03;3.28;;;;;;;5.00;49.59;93477.50;5056935;28;20078;-37
2022/01/21 12:03:23;;;;;;;6.20;3.70;;;;;;;4.73;47.48;93442.91;5070179;28;20024;-37
2022/01/21 12:05:50;;;;;;;3.28;2.05;;;;;;;4.63;47.98;93476.06;5067665;28;20028;-37
2022/01/21 12:08:16;;;;;;;5.03;3.45;;;;;;;4.21;49.51;93448.56;5067778;28;20021;-37
2022/01/21 12:10:43;;;;;;;3.08;2.47;;;;;;;4.23;50.52;93471.41;5071840;28;20039;-37
2022/01/21 12:13:19;;;;;;;1.23;1.13;;;;;;;4.30;45.78;93479.06;5068307;28;20637;-37
2022/01/21 12:21:24;;;;;;;4.13;2.88;;;;;;;3.99;48.07;93482.22;5063960;28;20119;-38
2022/01/21 12:23:49;;;;;;;17.27;15.52;;;;;;;4.06;49.91;93470.03;5062169;28;20115;-38
2022/01/21 12:26:25;;;;;;;9.30;5.20;;;;;;;3.87;44.87;93471.88;5062289;28;20628;-37
2022/01/21 12:28:59;;;;;;;6.35;3.65;;;;;;;3.46;42.56;93469.09;5065808;28;20033;-37
2022/01/21 12:31:26;;;;;;;4.20;2.28;;;;;;;3.32;43.97;93479.06;5060677;28;20044;-37
2022/01/21 12:36:26;;;;;;;6.30;2.95;;;;;;;2.85;49.79;93461.81;5071780;28;20044;-37
2022/01/21 12:41:17;;;;;;;5.85;3.75;;;;;;;2.83;54.33;93449.94;5071705;28;20036;-37
2022/01/21 12:43:46;;;;;;;4.20;2.78;;;;;;;2.80;54.83;93456.38;5071892;28;20051;-37